PWSweather.com
Personal Weather Stations
Station Observations
IONTARIO88
Lincoln, ON L0R

Lincoln, ON L0R

Lat: 43.1763563, Lon: -79.4719525

Elevation: 297

Station Type: Davis Vantage Pro 2 Plus

http://www.beamsvillewx.ca

Latest ConditionsUpdated 8:30:02 PM EDT Sunday, Mar 26, 2017
Currently Today's Max Today's Min Today's Average
Temperature 40.4°F4.7°C 44.4°F6.9°C 35.7°F2.1°C 39.3°F4.1°C
Dew Point 38.3°F3.5°C 40.8°F4.9°C 32.6°F0.3°C 36.8°F2.7°C
Winds Calm Calm 8.1 mph ENE13.0 kmh ENE - 3.8 mph 6.1 kmh
Wind Gusts -- 11.5 mph18.5 kmh - -
Humidity 92% 93% 85% 90%
Pressure 29.98 in1015.2 mb 30.32 in1026.8 mb 29.98 in1015.2 mb -
Precipitation - 0.01 in0.3 mm - -
Hour Temp Dew Point Humidity Winds Wind Gusts Pressure Precip Precip Rate Daily Precip Total
08:30 PM 40.4°F4.7°C 38.3°F3.5°C 92% Calm Calm -- 29.98 in1015.2 mb - 0.00 in0.0 mm 0.01 in0.3 mm
08:20 PM 40.4°F4.7°C 38.3°F3.5°C 92% 2.3 mph NW3.7 kmh NW 3.5 mph5.6 kmh 29.99 in1015.6 mb - 0.00 in0.0 mm 0.01 in0.3 mm
08:10 PM 40.4°F4.7°C 38.3°F3.5°C 92% 2.3 mph NW3.7 kmh NW 3.5 mph5.6 kmh 29.99 in1015.6 mb - 0.00 in0.0 mm 0.01 in0.3 mm
08:00 PM 40.4°F4.7°C 38.2°F3.4°C 92% 3.5 mph NW5.6 kmh NW 3.5 mph5.6 kmh 29.98 in1015.2 mb - 0.00 in0.0 mm 0.01 in0.3 mm
07:50 PM 40.3°F4.6°C 38.2°F3.4°C 92% 1.2 mph NW1.9 kmh NW 2.3 mph3.7 kmh 29.98 in1015.2 mb - 0.00 in0.0 mm 0.01 in0.3 mm
07:40 PM 40.4°F4.7°C 38.3°F3.5°C 92% 2.3 mph NW3.7 kmh NW 3.5 mph5.6 kmh 29.99 in1015.6 mb - 0.00 in0.0 mm 0.01 in0.3 mm
07:30 PM 40.5°F4.7°C 38.1°F3.4°C 91% 3.5 mph NW5.6 kmh NW 3.5 mph5.6 kmh 29.99 in1015.6 mb - 0.00 in0.0 mm 0.01 in0.3 mm
07:20 PM 40.8°F4.9°C 38.4°F3.6°C 91% 2.3 mph NW3.7 kmh NW 4.6 mph7.4 kmh 29.99 in1015.6 mb - 0.00 in0.0 mm 0.01 in0.3 mm
07:10 PM 41.0°F5.0°C 38.3°F3.5°C 90% 1.2 mph NW1.9 kmh NW 3.5 mph5.6 kmh 29.99 in1015.6 mb - 0.00 in0.0 mm 0.01 in0.3 mm
07:00 PM 41.2°F5.1°C 38.5°F3.6°C 90% 2.3 mph NW3.7 kmh NW 4.6 mph7.4 kmh 30.00 in1015.9 mb - 0.00 in0.0 mm 0.01 in0.3 mm
06:50 PM 41.4°F5.2°C 38.7°F3.7°C 90% 2.3 mph NNW3.7 kmh NNW 3.5 mph5.6 kmh 30.00 in1015.9 mb - 0.00 in0.0 mm 0.01 in0.3 mm
06:40 PM 41.6°F5.3°C 38.6°F3.7°C 89% 3.5 mph NNW5.6 kmh NNW 4.6 mph7.4 kmh 29.99 in1015.6 mb - 0.00 in0.0 mm 0.01 in0.3 mm
06:30 PM 41.6°F5.3°C 38.6°F3.7°C 89% 2.3 mph NNW3.7 kmh NNW 2.3 mph3.7 kmh 29.99 in1015.6 mb - 0.00 in0.0 mm 0.01 in0.3 mm
06:20 PM 41.7°F5.4°C 38.7°F3.7°C 89% 2.3 mph NNW3.7 kmh NNW 3.5 mph5.6 kmh 29.99 in1015.6 mb - 0.00 in0.0 mm 0.01 in0.3 mm
06:10 PM 41.7°F5.4°C 38.4°F3.6°C 88% Calm Calm 1.2 mph1.9 kmh 29.99 in1015.6 mb - 0.00 in0.0 mm 0.01 in0.3 mm
06:00 PM 41.7°F5.4°C 38.4°F3.6°C 88% 2.3 mph N3.7 kmh N 3.5 mph5.6 kmh 30.00 in1015.9 mb - 0.00 in0.0 mm 0.01 in0.3 mm
05:50 PM 41.7°F5.4°C 38.4°F3.6°C 88% 2.3 mph N3.7 kmh N 4.6 mph7.4 kmh 30.00 in1015.9 mb - 0.00 in0.0 mm 0.01 in0.3 mm
05:40 PM 41.7°F5.4°C 38.4°F3.6°C 88% 2.3 mph N3.7 kmh N 4.6 mph7.4 kmh 30.01 in1016.3 mb - 0.00 in0.0 mm 0.01 in0.3 mm
05:30 PM 41.9°F5.5°C 38.3°F3.5°C 87% 4.6 mph NNE7.4 kmh NNE 6.9 mph11.1 kmh 30.01 in1016.3 mb - 0.00 in0.0 mm 0.01 in0.3 mm
05:20 PM 42.3°F5.7°C 38.7°F3.7°C 87% 3.5 mph N5.6 kmh N 4.6 mph7.4 kmh 30.02 in1016.6 mb - 0.00 in0.0 mm 0.01 in0.3 mm
05:10 PM 42.3°F5.7°C 38.7°F3.7°C 87% 2.3 mph NNE3.7 kmh NNE 3.5 mph5.6 kmh 30.02 in1016.6 mb - 0.00 in0.0 mm 0.01 in0.3 mm
05:00 PM 42.5°F5.8°C 38.9°F3.8°C 87% 3.5 mph NE5.6 kmh NE 4.6 mph7.4 kmh 30.02 in1016.6 mb - 0.00 in0.0 mm 0.01 in0.3 mm
04:50 PM 42.2°F5.7°C 38.9°F3.8°C 88% 3.5 mph NE5.6 kmh NE 5.8 mph9.3 kmh 30.02 in1016.6 mb - 0.00 in0.0 mm 0.01 in0.3 mm
04:40 PM 41.7°F5.4°C 38.5°F3.6°C 88% 4.6 mph NE7.4 kmh NE 6.9 mph11.1 kmh 30.02 in1016.6 mb - 0.00 in0.0 mm 0.01 in0.3 mm
04:30 PM 42.2°F5.7°C 38.6°F3.7°C 87% 6.9 mph NE11.1 kmh NE 10.4 mph16.7 kmh 30.02 in1016.6 mb - 0.00 in0.0 mm 0.01 in0.3 mm
04:20 PM 42.3°F5.7°C 38.7°F3.7°C 87% 6.9 mph NE11.1 kmh NE 9.2 mph14.8 kmh 30.03 in1016.9 mb - 0.00 in0.0 mm 0.01 in0.3 mm
04:10 PM 41.9°F5.5°C 38.4°F3.6°C 87% 4.6 mph NE7.4 kmh NE 6.9 mph11.1 kmh 30.04 in1017.3 mb - 0.00 in0.0 mm 0.01 in0.3 mm
04:00 PM 42.0°F5.6°C 38.4°F3.6°C 87% 4.6 mph ENE7.4 kmh ENE 11.5 mph18.5 kmh 30.03 in1016.9 mb - 0.00 in0.0 mm 0.01 in0.3 mm
03:50 PM 42.0°F5.6°C 38.7°F3.7°C 88% 4.6 mph NE7.4 kmh NE 9.2 mph14.8 kmh 30.04 in1017.3 mb - 0.00 in0.0 mm 0.01 in0.3 mm
03:40 PM 42.0°F5.6°C 38.4°F3.6°C 87% 6.9 mph NE11.1 kmh NE 11.5 mph18.5 kmh 30.04 in1017.3 mb - 0.00 in0.0 mm 0.01 in0.3 mm
03:30 PM 42.1°F5.6°C 38.5°F3.6°C 87% 4.6 mph ENE7.4 kmh ENE 4.6 mph7.4 kmh 30.04 in1017.3 mb - 0.00 in0.0 mm 0.01 in0.3 mm
03:20 PM 42.5°F5.8°C 38.9°F3.8°C 87% 3.5 mph ENE5.6 kmh ENE 4.6 mph7.4 kmh 30.04 in1017.3 mb - 0.00 in0.0 mm 0.01 in0.3 mm
03:10 PM 43.0°F6.1°C 39.1°F3.9°C 86% 6.9 mph NE11.1 kmh NE 9.2 mph14.8 kmh 30.05 in1017.6 mb - 0.00 in0.0 mm 0.01 in0.3 mm
03:00 PM 43.1°F6.2°C 39.5°F4.2°C 87% 3.5 mph NE5.6 kmh NE 4.6 mph7.4 kmh 30.05 in1017.6 mb - 0.00 in0.0 mm 0.01 in0.3 mm
02:50 PM 43.6°F6.4°C 39.4°F4.1°C 85% 6.9 mph NE11.1 kmh NE 9.2 mph14.8 kmh 30.05 in1017.6 mb - 0.00 in0.0 mm 0.01 in0.3 mm
02:40 PM 44.4°F6.9°C 40.8°F4.9°C 87% 3.5 mph NE5.6 kmh NE 6.9 mph11.1 kmh 30.05 in1017.6 mb - 0.00 in0.0 mm 0.01 in0.3 mm
02:30 PM 43.7°F6.5°C 40.1°F4.5°C 87% 2.3 mph NE3.7 kmh NE 3.5 mph5.6 kmh 30.06 in1017.9 mb - 0.00 in0.0 mm 0.01 in0.3 mm
02:20 PM 43.1°F6.2°C 39.7°F4.3°C 88% 4.6 mph NE7.4 kmh NE 4.6 mph7.4 kmh 30.07 in1018.3 mb - 0.00 in0.0 mm 0.01 in0.3 mm
02:10 PM 43.1°F6.2°C 39.8°F4.3°C 88% 4.6 mph NE7.4 kmh NE 8.1 mph13.0 kmh 30.08 in1018.6 mb - 0.00 in0.0 mm 0.01 in0.3 mm
02:00 PM 42.8°F6.0°C 39.5°F4.2°C 88% 5.8 mph NE9.3 kmh NE 11.5 mph18.5 kmh 30.08 in1018.6 mb - 0.00 in0.0 mm 0.01 in0.3 mm
01:50 PM 42.9°F6.1°C 39.9°F4.4°C 89% 4.6 mph NE7.4 kmh NE 5.8 mph9.3 kmh 30.09 in1019.0 mb - 0.00 in0.0 mm 0.01 in0.3 mm
01:40 PM 42.8°F6.0°C 39.5°F4.2°C 88% 5.8 mph NE9.3 kmh NE 9.2 mph14.8 kmh 30.10 in1019.3 mb - 0.00 in0.0 mm 0.01 in0.3 mm
01:30 PM 43.1°F6.2°C 39.5°F4.2°C 87% 3.5 mph NE5.6 kmh NE 5.8 mph9.3 kmh 30.10 in1019.3 mb - 0.00 in0.0 mm 0.01 in0.3 mm
01:20 PM 43.6°F6.4°C 40.0°F4.4°C 87% 4.6 mph NE7.4 kmh NE 5.8 mph9.3 kmh 30.10 in1019.3 mb - 0.00 in0.0 mm 0.01 in0.3 mm
01:10 PM 43.1°F6.2°C 40.4°F4.7°C 90% 4.6 mph NE7.4 kmh NE 4.6 mph7.4 kmh 30.10 in1019.3 mb - 0.00 in0.0 mm 0.01 in0.3 mm
01:00 PM 42.3°F5.7°C 39.3°F4.1°C 89% 4.6 mph NE7.4 kmh NE 5.8 mph9.3 kmh 30.11 in1019.6 mb - 0.00 in0.0 mm 0.01 in0.3 mm
12:50 PM 42.8°F6.0°C 39.5°F4.2°C 88% 4.6 mph ENE7.4 kmh ENE 6.9 mph11.1 kmh 30.11 in1019.6 mb - 0.00 in0.0 mm 0.01 in0.3 mm
12:40 PM 43.0°F6.1°C 40.0°F4.4°C 89% 4.6 mph NE7.4 kmh NE 8.1 mph13.0 kmh 30.12 in1020.0 mb - 0.00 in0.0 mm 0.01 in0.3 mm
12:30 PM 42.6°F5.9°C 39.5°F4.2°C 89% 3.5 mph NE5.6 kmh NE 6.9 mph11.1 kmh 30.12 in1020.0 mb - 0.00 in0.0 mm 0.01 in0.3 mm
12:20 PM 42.2°F5.7°C 39.5°F4.2°C 90% 3.5 mph NE5.6 kmh NE 4.6 mph7.4 kmh 30.12 in1020.0 mb - 0.00 in0.0 mm 0.01 in0.3 mm
12:10 PM 42.2°F5.7°C 39.5°F4.2°C 90% 4.6 mph NE7.4 kmh NE 9.2 mph14.8 kmh 30.13 in1020.3 mb - 0.00 in0.0 mm 0.01 in0.3 mm
12:00 PM 41.5°F5.3°C 39.1°F3.9°C 91% 4.6 mph ENE7.4 kmh ENE 6.9 mph11.1 kmh 30.13 in1020.3 mb - 0.00 in0.0 mm 0.01 in0.3 mm
11:50 AM 41.0°F5.0°C 38.9°F3.8°C 92% 3.5 mph NE5.6 kmh NE 8.1 mph13.0 kmh 30.13 in1020.3 mb - 0.00 in0.0 mm 0.01 in0.3 mm
11:40 AM 40.5°F4.7°C 38.4°F3.6°C 92% 6.9 mph NE11.1 kmh NE 9.2 mph14.8 kmh 30.13 in1020.3 mb - 0.00 in0.0 mm 0.01 in0.3 mm
11:30 AM 40.5°F4.7°C 38.1°F3.4°C 91% 5.8 mph NE9.3 kmh NE 6.9 mph11.1 kmh 30.13 in1020.3 mb - 0.00 in0.0 mm 0.01 in0.3 mm
11:20 AM 40.6°F4.8°C 37.9°F3.3°C 90% 5.8 mph NE9.3 kmh NE 6.9 mph11.1 kmh 30.14 in1020.7 mb - 0.00 in0.0 mm 0.01 in0.3 mm
11:10 AM 41.2°F5.1°C 38.5°F3.6°C 90% 3.5 mph NE5.6 kmh NE 9.2 mph14.8 kmh 30.14 in1020.7 mb - 0.00 in0.0 mm 0.01 in0.3 mm
11:00 AM 41.3°F5.2°C 38.6°F3.7°C 90% 4.6 mph NNE7.4 kmh NNE 5.8 mph9.3 kmh 30.15 in1021.0 mb - 0.00 in0.0 mm 0.01 in0.3 mm
10:50 AM 41.6°F5.3°C 38.6°F3.7°C 89% 4.6 mph NE7.4 kmh NE 6.9 mph11.1 kmh 30.15 in1021.0 mb - 0.00 in0.0 mm 0.01 in0.3 mm
10:40 AM 41.8°F5.4°C 39.1°F3.9°C 90% 3.5 mph NE5.6 kmh NE 4.6 mph7.4 kmh 30.15 in1021.0 mb - 0.00 in0.0 mm 0.01 in0.3 mm
10:30 AM 41.3°F5.2°C 38.6°F3.7°C 90% 3.5 mph NE5.6 kmh NE 5.8 mph9.3 kmh 30.15 in1021.0 mb - 0.00 in0.0 mm 0.01 in0.3 mm
10:20 AM 41.4°F5.2°C 38.7°F3.7°C 90% 2.3 mph NE3.7 kmh NE 3.5 mph5.6 kmh 30.15 in1021.0 mb - 0.00 in0.0 mm 0.01 in0.3 mm
10:10 AM 40.9°F4.9°C 38.2°F3.4°C 90% 4.6 mph NE7.4 kmh NE 6.9 mph11.1 kmh 30.15 in1021.0 mb - 0.00 in0.0 mm 0.01 in0.3 mm
10:00 AM 40.5°F4.7°C 38.1°F3.4°C 91% 4.6 mph NE7.4 kmh NE 5.8 mph9.3 kmh 30.15 in1021.0 mb - 0.00 in0.0 mm 0.01 in0.3 mm
09:50 AM 40.1°F4.5°C 37.7°F3.2°C 91% 3.5 mph NE5.6 kmh NE 8.1 mph13.0 kmh 30.15 in1021.0 mb - 0.00 in0.0 mm 0.01 in0.3 mm
09:40 AM 39.6°F4.2°C 37.2°F2.9°C 91% 3.5 mph NE5.6 kmh NE 4.6 mph7.4 kmh 30.16 in1021.3 mb - 0.00 in0.0 mm 0.01 in0.3 mm
09:30 AM 39.3°F4.1°C 37.2°F2.9°C 92% 2.3 mph NE3.7 kmh NE 3.5 mph5.6 kmh 30.16 in1021.3 mb - 0.00 in0.0 mm 0.01 in0.3 mm
09:20 AM 39.0°F3.9°C 36.9°F2.7°C 92% 2.3 mph NE3.7 kmh NE 4.6 mph7.4 kmh 30.16 in1021.3 mb - 0.00 in0.0 mm 0.01 in0.3 mm
09:10 AM 39.0°F3.9°C 36.9°F2.7°C 92% 2.3 mph NE3.7 kmh NE 5.8 mph9.3 kmh 30.16 in1021.3 mb - 0.00 in0.0 mm 0.01 in0.3 mm
09:00 AM 38.8°F3.8°C 36.7°F2.6°C 92% 2.3 mph NE3.7 kmh NE 3.5 mph5.6 kmh 30.16 in1021.3 mb - 0.00 in0.0 mm 0.01 in0.3 mm
08:50 AM 38.3°F3.5°C 36.2°F2.3°C 92% 3.5 mph NE5.6 kmh NE 3.5 mph5.6 kmh 30.17 in1021.7 mb - 0.00 in0.0 mm 0.01 in0.3 mm
08:40 AM 38.1°F3.4°C 36.2°F2.3°C 93% 2.3 mph NE3.7 kmh NE 3.5 mph5.6 kmh 30.18 in1022.0 mb - 0.00 in0.0 mm 0.01 in0.3 mm
08:30 AM 37.8°F3.2°C 36.0°F2.2°C 93% 2.3 mph NE3.7 kmh NE 3.5 mph5.6 kmh 30.17 in1021.7 mb - 0.00 in0.0 mm 0.01 in0.3 mm
08:20 AM 37.6°F3.1°C 35.8°F2.1°C 93% 2.3 mph NE3.7 kmh NE 3.5 mph5.6 kmh 30.18 in1022.0 mb - 0.00 in0.0 mm 0.01 in0.3 mm
08:10 AM 37.5°F3.1°C 35.7°F2.1°C 93% 2.3 mph NE3.7 kmh NE 3.5 mph5.6 kmh 30.18 in1022.0 mb - 0.00 in0.0 mm 0.01 in0.3 mm
08:00 AM 37.4°F3.0°C 35.6°F2.0°C 93% 2.3 mph NE3.7 kmh NE 3.5 mph5.6 kmh 30.18 in1022.0 mb - 0.00 in0.0 mm 0.01 in0.3 mm
07:50 AM 37.3°F2.9°C 35.4°F1.9°C 93% 1.2 mph NE1.9 kmh NE 3.5 mph5.6 kmh 30.18 in1022.0 mb - 0.00 in0.0 mm 0.01 in0.3 mm
07:40 AM 37.1°F2.8°C 35.3°F1.8°C 93% 3.5 mph NE5.6 kmh NE 3.5 mph5.6 kmh 30.18 in1022.0 mb - 0.00 in0.0 mm 0.01 in0.3 mm
07:30 AM 37.0°F2.8°C 35.2°F1.8°C 93% 2.3 mph NE3.7 kmh NE 3.5 mph5.6 kmh 30.19 in1022.4 mb - 0.00 in0.0 mm 0.01 in0.3 mm
07:20 AM 36.9°F2.7°C 35.1°F1.7°C 93% 2.3 mph NE3.7 kmh NE 3.5 mph5.6 kmh 30.20 in1022.7 mb - 0.00 in0.0 mm 0.01 in0.3 mm
07:10 AM 36.9°F2.7°C 35.1°F1.7°C 93% 2.3 mph NE3.7 kmh NE 3.5 mph5.6 kmh 30.20 in1022.7 mb - 0.00 in0.0 mm 0.01 in0.3 mm
07:00 AM 36.8°F2.7°C 35.0°F1.7°C 93% 1.2 mph NE1.9 kmh NE 3.5 mph5.6 kmh 30.20 in1022.7 mb - 0.00 in0.0 mm 0.01 in0.3 mm
06:50 AM 36.7°F2.6°C 34.9°F1.6°C 93% 3.5 mph NE5.6 kmh NE 3.5 mph5.6 kmh 30.20 in1022.7 mb - 0.00 in0.0 mm 0.01 in0.3 mm
06:40 AM 36.7°F2.6°C 34.9°F1.6°C 93% 3.5 mph NE5.6 kmh NE 3.5 mph5.6 kmh 30.20 in1022.7 mb - 0.00 in0.0 mm 0.01 in0.3 mm
06:30 AM 36.6°F2.6°C 34.8°F1.6°C 93% 3.5 mph ENE5.6 kmh ENE 8.1 mph13.0 kmh 30.20 in1022.7 mb - 0.00 in0.0 mm 0.01 in0.3 mm
06:20 AM 36.6°F2.6°C 34.8°F1.6°C 93% 3.5 mph NE5.6 kmh NE 5.8 mph9.3 kmh 30.21 in1023.0 mb - 0.00 in0.0 mm 0.01 in0.3 mm
06:10 AM 36.6°F2.6°C 34.8°F1.6°C 93% 4.6 mph NE7.4 kmh NE 4.6 mph7.4 kmh 30.21 in1023.0 mb - 0.00 in0.0 mm 0.01 in0.3 mm
06:00 AM 36.5°F2.5°C 34.7°F1.5°C 93% 2.3 mph ENE3.7 kmh ENE 3.5 mph5.6 kmh 30.22 in1023.4 mb - 0.00 in0.0 mm 0.01 in0.3 mm
05:50 AM 36.5°F2.5°C 34.6°F1.4°C 93% 3.5 mph ENE5.6 kmh ENE 3.5 mph5.6 kmh 30.21 in1023.0 mb - 0.00 in0.0 mm 0.01 in0.3 mm
05:40 AM 36.4°F2.4°C 34.6°F1.4°C 93% 3.5 mph ENE5.6 kmh ENE 4.6 mph7.4 kmh 30.21 in1023.0 mb - 0.00 in0.0 mm 0.01 in0.3 mm
05:30 AM 36.4°F2.4°C 34.6°F1.4°C 93% 3.5 mph NE5.6 kmh NE 3.5 mph5.6 kmh 30.21 in1023.0 mb - 0.00 in0.0 mm 0.01 in0.3 mm
05:20 AM 36.4°F2.4°C 34.6°F1.4°C 93% 4.6 mph NE7.4 kmh NE 11.5 mph18.5 kmh 30.22 in1023.4 mb - 0.00 in0.0 mm 0.01 in0.3 mm
05:10 AM 36.3°F2.4°C 34.5°F1.4°C 93% 3.5 mph ENE5.6 kmh ENE 3.5 mph5.6 kmh 30.22 in1023.4 mb - 0.00 in0.0 mm 0.01 in0.3 mm
05:00 AM 36.3°F2.4°C 34.5°F1.4°C 93% 3.5 mph ENE5.6 kmh ENE 4.6 mph7.4 kmh 30.23 in1023.7 mb - 0.00 in0.0 mm 0.01 in0.3 mm
04:50 AM 36.3°F2.4°C 34.2°F1.2°C 92% 4.6 mph NE7.4 kmh NE 8.1 mph13.0 kmh 30.23 in1023.7 mb - 0.00 in0.0 mm 0.01 in0.3 mm
04:40 AM 36.2°F2.3°C 34.1°F1.2°C 92% 3.5 mph ENE5.6 kmh ENE 6.9 mph11.1 kmh 30.23 in1023.7 mb - 0.00 in0.0 mm 0.01 in0.3 mm
04:30 AM 36.1°F2.3°C 34.0°F1.1°C 92% 4.6 mph ENE7.4 kmh ENE 4.6 mph7.4 kmh 30.23 in1023.7 mb - 0.00 in0.0 mm 0.01 in0.3 mm
04:20 AM 36.0°F2.2°C 33.9°F1.1°C 92% 4.6 mph NE7.4 kmh NE 6.9 mph11.1 kmh 30.25 in1024.4 mb - 0.00 in0.0 mm 0.01 in0.3 mm
04:10 AM 35.9°F2.2°C 33.8°F1.0°C 92% 4.6 mph ENE7.4 kmh ENE 8.1 mph13.0 kmh 30.25 in1024.4 mb - 0.00 in0.0 mm 0.01 in0.3 mm
04:00 AM 35.9°F2.2°C 33.8°F1.0°C 92% 5.8 mph ENE9.3 kmh ENE 8.1 mph13.0 kmh 30.25 in1024.4 mb - 0.00 in0.0 mm 0.01 in0.3 mm
03:50 AM 35.8°F2.1°C 33.7°F0.9°C 92% 5.8 mph ENE9.3 kmh ENE 9.2 mph14.8 kmh 30.25 in1024.4 mb - 0.00 in0.0 mm 0.01 in0.3 mm
03:40 AM 35.8°F2.1°C 33.7°F0.9°C 92% 8.1 mph ENE13.0 kmh ENE 10.4 mph16.7 kmh 30.26 in1024.7 mb - 0.00 in0.0 mm 0.01 in0.3 mm
03:30 AM 35.7°F2.1°C 33.6°F0.9°C 92% 5.8 mph NE9.3 kmh NE 6.9 mph11.1 kmh 30.27 in1025.1 mb - 0.00 in0.0 mm 0.01 in0.3 mm
03:20 AM 35.7°F2.1°C 33.6°F0.9°C 92% 5.8 mph ENE9.3 kmh ENE 8.1 mph13.0 kmh 30.27 in1025.1 mb - 0.00 in0.0 mm 0.01 in0.3 mm
03:10 AM 35.7°F2.1°C 33.6°F0.9°C 92% 5.8 mph ENE9.3 kmh ENE 10.4 mph16.7 kmh 30.27 in1025.1 mb - 0.00 in0.0 mm 0.01 in0.3 mm
03:00 AM 35.7°F2.1°C 33.6°F0.9°C 92% 3.5 mph NE5.6 kmh NE 3.5 mph5.6 kmh 30.28 in1025.4 mb - 0.00 in0.0 mm 0.01 in0.3 mm
02:50 AM 35.8°F2.1°C 33.7°F0.9°C 92% 5.8 mph NE9.3 kmh NE 11.5 mph18.5 kmh 30.28 in1025.4 mb - 0.00 in0.0 mm 0.01 in0.3 mm
02:40 AM 35.8°F2.1°C 33.7°F0.9°C 92% 3.5 mph NE5.6 kmh NE 4.6 mph7.4 kmh 30.29 in1025.7 mb - 0.00 in0.0 mm 0.01 in0.3 mm
02:30 AM 35.8°F2.1°C 33.7°F0.9°C 92% 4.6 mph ENE7.4 kmh ENE 9.2 mph14.8 kmh 30.29 in1025.7 mb - 0.00 in0.0 mm 0.01 in0.3 mm
02:20 AM 35.8°F2.1°C 33.7°F0.9°C 92% 3.5 mph ENE5.6 kmh ENE 8.1 mph13.0 kmh 30.29 in1025.7 mb - 0.00 in0.0 mm 0.01 in0.3 mm
02:10 AM 35.8°F2.1°C 33.7°F0.9°C 92% 3.5 mph ENE5.6 kmh ENE 8.1 mph13.0 kmh 30.27 in1025.1 mb - 0.00 in0.0 mm 0.01 in0.3 mm
02:00 AM 35.7°F2.1°C 33.7°F0.9°C 92% 3.5 mph ENE5.6 kmh ENE 4.6 mph7.4 kmh 30.29 in1025.7 mb - 0.00 in0.0 mm 0.01 in0.3 mm
01:50 AM 35.7°F2.1°C 33.6°F0.9°C 92% 6.9 mph ENE11.1 kmh ENE 8.1 mph13.0 kmh 30.29 in1025.7 mb - 0.00 in0.0 mm 0.01 in0.3 mm
01:40 AM 35.7°F2.1°C 33.6°F0.9°C 92% 4.6 mph ENE7.4 kmh ENE 6.9 mph11.1 kmh 30.29 in1025.7 mb - 0.00 in0.0 mm 0.01 in0.3 mm
01:30 AM 35.7°F2.1°C 33.3°F0.7°C 91% 3.5 mph ENE5.6 kmh ENE 3.5 mph5.6 kmh 30.30 in1026.1 mb - 0.01 in0.3 mm 0.01 in0.3 mm
01:20 AM 35.7°F2.1°C 33.3°F0.7°C 91% 3.5 mph NE5.6 kmh NE 9.2 mph14.8 kmh 30.31 in1026.4 mb - 0.00 in0.0 mm 0.00 in0.0 mm
01:10 AM 35.7°F2.1°C 33.1°F0.6°C 90% 3.5 mph NE5.6 kmh NE 4.6 mph7.4 kmh 30.30 in1026.1 mb - 0.00 in0.0 mm 0.00 in0.0 mm
01:00 AM 35.7°F2.1°C 33.1°F0.6°C 90% 4.6 mph ENE7.4 kmh ENE 6.9 mph11.1 kmh 30.30 in1026.1 mb - 0.00 in0.0 mm 0.00 in0.0 mm
12:50 AM 35.7°F2.1°C 33.1°F0.6°C 90% 4.6 mph ENE7.4 kmh ENE 4.6 mph7.4 kmh 30.30 in1026.1 mb - 0.00 in0.0 mm 0.00 in0.0 mm
12:40 AM 35.7°F2.1°C 32.8°F0.4°C 89% 6.9 mph ENE11.1 kmh ENE 10.4 mph16.7 kmh 30.31 in1026.4 mb - 0.00 in0.0 mm 0.00 in0.0 mm
12:30 AM 35.8°F2.1°C 32.9°F0.5°C 89% 4.6 mph NE7.4 kmh NE 6.9 mph11.1 kmh 30.32 in1026.8 mb - 0.00 in0.0 mm 0.00 in0.0 mm
12:20 AM 35.8°F2.1°C 32.9°F0.5°C 89% 4.6 mph ENE7.4 kmh ENE 6.9 mph11.1 kmh 30.32 in1026.8 mb - 0.00 in0.0 mm 0.00 in0.0 mm
12:10 AM 35.8°F2.1°C 32.9°F0.5°C 89% 3.5 mph ENE5.6 kmh ENE 8.1 mph13.0 kmh 30.32 in1026.8 mb - 0.00 in0.0 mm 0.00 in0.0 mm
12:00 AM 35.8°F2.1°C 32.6°F0.3°C 88% 3.5 mph ENE5.6 kmh ENE 3.5 mph5.6 kmh 30.32 in1026.8 mb - 0.00 in0.0 mm 0.00 in0.0 mm